createdAt,value
2018-01-11T00:01:16.960Z,12.67
2018-01-11T00:03:45.344Z,12.47
2018-01-11T00:06:13.706Z,13.15
2018-01-11T00:08:42.056Z,13.53
2018-01-11T00:11:10.478Z,13.56
2018-01-11T00:13:38.826Z,12.89
2018-01-11T00:16:07.810Z,12.25
2018-01-11T00:18:36.181Z,11.67
2018-01-11T00:21:04.620Z,12.83
2018-01-11T00:23:33.010Z,13.02
2018-01-11T00:26:01.365Z,13.27
2018-01-11T00:28:29.732Z,13.07
2018-01-11T00:30:58.107Z,13.26
2018-01-11T00:33:26.474Z,13.33
2018-01-11T00:35:54.893Z,13.30
2018-01-11T00:38:23.262Z,12.93
2018-01-11T00:40:51.628Z,12.55
2018-01-11T00:43:19.995Z,12.17
2018-01-11T00:45:48.358Z,13.31
2018-01-11T00:48:16.761Z,13.25
2018-01-11T00:50:45.130Z,13.56
2018-01-11T00:53:13.488Z,13.51
2018-01-11T00:55:41.863Z,13.52
2018-01-11T00:58:10.284Z,13.62
2018-01-11T01:00:38.692Z,12.36
2018-01-11T01:03:07.066Z,12.27
2018-01-11T01:05:35.446Z,13.03
2018-01-11T01:08:03.811Z,12.83
2018-01-11T01:10:32.175Z,12.43
2018-01-11T01:13:00.569Z,12.85
2018-01-11T01:15:28.936Z,12.47
2018-01-11T01:17:57.307Z,13.50
2018-01-11T01:20:25.681Z,13.06
2018-01-11T01:22:54.049Z,13.13
2018-01-11T01:25:22.442Z,13.63
2018-01-11T01:27:50.811Z,12.22
2018-01-11T01:30:19.212Z,13.23
2018-01-11T01:32:47.573Z,13.34
2018-01-11T01:35:15.952Z,13.33
2018-01-11T01:37:44.379Z,13.22
2018-01-11T01:40:12.736Z,12.72
2018-01-11T01:42:41.104Z,12.87
2018-01-11T01:45:09.562Z,13.42
2018-01-11T01:47:37.967Z,13.20
2018-01-11T01:50:06.379Z,13.08
2018-01-11T01:52:34.749Z,13.03
2018-01-11T01:55:03.129Z,13.56
2018-01-11T01:57:31.501Z,13.55
2018-01-11T01:59:59.909Z,13.57
2018-01-11T02:02:28.308Z,13.51
2018-01-11T02:04:56.667Z,13.31
2018-01-11T02:07:25.044Z,13.02
2018-01-11T02:09:53.426Z,12.92
2018-01-11T02:12:21.784Z,13.07
2018-01-11T02:14:50.175Z,13.22
2018-01-11T02:17:18.553Z,13.54
2018-01-11T02:19:46.925Z,13.74
2018-01-11T02:22:15.285Z,13.62
2018-01-11T02:24:43.659Z,13.90
2018-01-11T02:27:12.063Z,13.68
2018-01-11T02:29:40.423Z,13.91
2018-01-11T02:32:08.813Z,13.69
2018-01-11T02:34:37.180Z,13.68
2018-01-11T02:37:05.600Z,13.34
2018-01-11T02:39:33.970Z,13.55
2018-01-11T02:42:02.334Z,13.10
2018-01-11T02:44:30.694Z,12.93
2018-01-11T02:46:59.060Z,12.75
2018-01-11T02:49:27.468Z,12.64
2018-01-11T02:51:55.827Z,12.72
2018-01-11T02:54:24.244Z,12.34
2018-01-11T02:56:52.614Z,12.03
2018-01-11T02:59:20.983Z,12.32
2018-01-11T03:01:49.379Z,13.05
2018-01-11T03:04:17.752Z,12.61
2018-01-11T03:06:46.107Z,12.57
2018-01-11T03:09:14.479Z,12.78
2018-01-11T03:11:42.858Z,12.59
2018-01-11T03:14:11.260Z,12.96
2018-01-11T03:16:39.661Z,12.87
2018-01-11T03:19:08.021Z,13.24
2018-01-11T03:21:36.432Z,13.24
2018-01-11T03:24:04.805Z,13.38
2018-01-11T03:26:33.233Z,13.55
2018-01-11T03:29:01.602Z,13.67
2018-01-11T03:31:29.958Z,13.51
2018-01-11T03:33:58.335Z,13.63
2018-01-11T03:36:26.683Z,13.20
2018-01-11T03:38:55.085Z,13.32
2018-01-11T03:41:23.443Z,13.66
2018-01-11T03:43:51.811Z,13.62
2018-01-11T03:46:20.199Z,13.38
2018-01-11T03:48:48.581Z,13.69
2018-01-11T03:51:16.985Z,13.75
2018-01-11T03:53:45.370Z,13.71
2018-01-11T03:58:57.715Z,13.64
2018-01-11T04:01:26.131Z,13.67
2018-01-11T04:03:54.553Z,13.63
2018-01-11T04:06:22.959Z,13.69
2018-01-11T04:08:51.331Z,13.91
2018-01-11T04:11:19.700Z,13.75
2018-01-11T04:13:48.063Z,14.06
2018-01-11T04:16:16.468Z,13.72
2018-01-11T04:18:44.838Z,13.76
2018-01-11T04:21:13.330Z,13.69
2018-01-11T04:23:41.735Z,14.09
2018-01-11T04:26:10.105Z,13.41
2018-01-11T04:28:38.506Z,13.43
2018-01-11T04:31:06.884Z,13.59
2018-01-11T04:33:35.273Z,13.73
2018-01-11T04:36:03.632Z,13.73
2018-01-11T04:38:32.005Z,13.42
2018-01-11T04:41:00.406Z,12.85
2018-01-11T04:43:28.781Z,13.30
2018-01-11T04:45:57.159Z,13.34
2018-01-11T04:48:25.615Z,13.49
2018-01-11T04:50:54.009Z,13.70
2018-01-11T04:53:22.453Z,13.82
2018-01-11T04:55:50.841Z,13.48
2018-01-11T04:58:19.190Z,13.53
2018-01-11T05:00:53.479Z,13.57
2018-01-11T05:03:21.846Z,13.63
2018-01-11T05:05:50.285Z,13.36
2018-01-11T05:08:18.649Z,13.62
2018-01-11T05:10:46.999Z,13.66
2018-01-11T05:13:15.378Z,13.72
2018-01-11T05:15:43.746Z,13.78
2018-01-11T05:18:12.149Z,13.10
2018-01-11T05:20:40.515Z,13.52
2018-01-11T05:23:08.876Z,13.60
2018-01-11T05:25:37.234Z,13.66
2018-01-11T05:28:05.616Z,13.61
2018-01-11T05:30:34.017Z,12.51
2018-01-11T05:33:02.426Z,13.47
2018-01-11T05:35:30.799Z,13.64
2018-01-11T05:37:59.150Z,13.41
2018-01-11T05:40:27.501Z,13.64
2018-01-11T05:42:55.880Z,13.65
2018-01-11T05:45:24.248Z,13.51
2018-01-11T05:47:52.612Z,13.68
2018-01-11T05:50:21.020Z,13.54
2018-01-11T05:55:33.440Z,13.71
2018-01-11T05:58:01.796Z,13.69
2018-01-11T06:00:30.215Z,13.45
2018-01-11T06:02:58.564Z,13.08
2018-01-11T06:05:26.983Z,12.99
2018-01-11T06:07:55.363Z,13.16
2018-01-11T06:10:23.724Z,13.47
2018-01-11T06:12:52.132Z,13.40
2018-01-11T06:15:20.503Z,13.52
2018-01-11T06:17:48.886Z,13.54
2018-01-11T06:20:17.246Z,13.51
2018-01-11T06:22:45.608Z,13.34
2018-01-11T06:25:13.991Z,13.86
2018-01-11T06:27:42.385Z,13.68
2018-01-11T06:30:10.741Z,13.61
2018-01-11T06:32:39.119Z,13.73
2018-01-11T06:35:07.487Z,13.39
2018-01-11T06:37:35.883Z,13.54
2018-01-11T06:40:04.282Z,13.37
2018-01-11T06:42:32.788Z,13.63
2018-01-11T06:45:01.184Z,13.80
2018-01-11T06:47:29.560Z,13.63
2018-01-11T06:49:57.965Z,13.30
2018-01-11T06:52:26.387Z,13.52
2018-01-11T06:54:54.769Z,13.60
2018-01-11T06:57:23.131Z,13.33
2018-01-11T06:59:51.534Z,13.41
2018-01-11T07:02:19.923Z,13.41
2018-01-11T07:04:48.282Z,13.57
2018-01-11T07:07:16.626Z,13.81
2018-01-11T07:09:44.976Z,13.62
2018-01-11T07:12:13.457Z,13.65
2018-01-11T07:14:41.876Z,13.28
2018-01-11T07:17:10.256Z,13.75
2018-01-11T07:19:38.616Z,13.23
2018-01-11T07:22:06.983Z,13.08
2018-01-11T07:24:35.337Z,13.37
2018-01-11T07:27:03.836Z,13.18
2018-01-11T07:29:32.195Z,13.36
2018-01-11T07:32:00.580Z,13.33
2018-01-11T07:34:28.946Z,13.39
2018-01-11T07:36:57.355Z,13.26
2018-01-11T07:39:25.719Z,13.13
2018-01-11T07:41:54.072Z,13.54
2018-01-11T07:44:22.443Z,13.68
2018-01-11T07:46:50.818Z,13.85
2018-01-11T07:49:19.201Z,13.91
2018-01-11T07:51:47.564Z,13.78
2018-01-11T07:54:15.957Z,14.19
2018-01-11T07:56:44.339Z,13.97
2018-01-11T07:59:12.687Z,13.67
2018-01-11T08:01:41.155Z,13.33
2018-01-11T08:04:09.500Z,13.41
2018-01-11T08:06:38.037Z,13.82
2018-01-11T08:09:06.382Z,13.76
2018-01-11T08:11:34.768Z,13.78
2018-01-11T08:14:03.148Z,13.87
2018-01-11T08:16:31.641Z,13.87
2018-01-11T08:19:00.903Z,13.87
2018-01-11T08:21:29.795Z,13.82
2018-01-11T08:23:58.273Z,13.96
2018-01-11T08:26:26.688Z,13.82
2018-01-11T08:28:55.093Z,13.87
2018-01-11T08:31:23.517Z,13.76
2018-01-11T08:33:51.912Z,13.88
2018-01-11T08:36:20.290Z,14.00
2018-01-11T08:38:49.015Z,14.09
2018-01-11T08:41:17.483Z,14.34
2018-01-11T08:43:45.898Z,14.24
2018-01-11T08:46:14.260Z,14.01
2018-01-11T08:48:42.646Z,13.98
2018-01-11T08:51:11.143Z,13.83
2018-01-11T08:53:39.515Z,13.86
2018-01-11T08:56:07.877Z,13.85
2018-01-11T08:58:36.244Z,13.97
2018-01-11T09:01:04.609Z,13.92
2018-01-11T09:03:33.878Z,13.84
2018-01-11T09:06:02.281Z,13.91
2018-01-11T09:08:30.657Z,14.37
2018-01-11T09:10:59.069Z,14.21
2018-01-11T09:13:27.436Z,14.51
2018-01-11T09:15:55.856Z,14.44
2018-01-11T09:18:24.255Z,14.43
2018-01-11T09:20:52.601Z,14.53
2018-01-11T09:23:20.986Z,14.61
2018-01-11T09:25:49.363Z,14.51
2018-01-11T09:28:17.726Z,14.72
2018-01-11T09:30:46.142Z,14.91
2018-01-11T09:33:14.500Z,14.89
2018-01-11T09:35:42.876Z,14.83
2018-01-11T09:38:11.256Z,14.91
2018-01-11T09:40:39.628Z,14.45
2018-01-11T09:43:08.028Z,14.28
2018-01-11T09:45:36.391Z,14.43
2018-01-11T09:48:04.787Z,14.17
2018-01-11T09:50:33.181Z,14.94
2018-01-11T09:53:01.527Z,15.10
2018-01-11T09:55:29.921Z,15.17
2018-01-11T09:57:58.283Z,15.30
2018-01-11T10:00:26.716Z,14.95
2018-01-11T10:02:55.102Z,14.72
2018-01-11T10:05:23.458Z,14.73
2018-01-11T10:07:51.864Z,14.45
2018-01-11T10:10:20.233Z,14.66
2018-01-11T10:12:48.610Z,14.70
2018-01-11T10:15:16.991Z,14.85
2018-01-11T10:17:45.357Z,14.30
2018-01-11T10:20:13.785Z,14.07
2018-01-11T10:22:42.128Z,13.55
2018-01-11T10:25:10.492Z,13.60
2018-01-11T10:27:38.857Z,13.54
2018-01-11T10:30:07.246Z,14.73
2018-01-11T10:32:35.648Z,14.91
2018-01-11T10:35:04.106Z,14.97
2018-01-11T10:37:32.483Z,14.96
2018-01-11T10:40:00.835Z,15.39
2018-01-11T10:42:29.275Z,15.83
2018-01-11T10:44:57.661Z,15.83
2018-01-11T10:47:26.158Z,15.63
2018-01-11T10:49:54.747Z,15.16
2018-01-11T10:52:23.153Z,15.54
2018-01-11T10:54:51.511Z,15.38
2018-01-11T10:57:19.961Z,15.06
2018-01-11T10:59:48.385Z,14.60
2018-01-11T11:02:22.316Z,14.93
2018-01-11T11:04:51.180Z,14.33
2018-01-11T11:07:19.532Z,14.84
2018-01-11T11:09:47.947Z,14.70
2018-01-11T11:12:16.295Z,15.17
2018-01-11T11:14:44.674Z,14.66
2018-01-11T11:17:13.029Z,14.56
2018-01-11T11:19:41.379Z,14.89
2018-01-11T11:22:09.724Z,15.31
2018-01-11T11:24:38.074Z,14.99
2018-01-11T11:27:06.588Z,15.30
2018-01-11T11:29:34.946Z,15.37
2018-01-11T11:32:03.398Z,15.76
2018-01-11T11:34:31.818Z,15.79
2018-01-11T11:37:00.193Z,15.84
2018-01-11T11:39:28.581Z,15.49
2018-01-11T11:41:56.940Z,15.45
2018-01-11T11:44:25.307Z,14.86
2018-01-11T11:46:53.664Z,15.92
2018-01-11T11:49:22.020Z,15.44
2018-01-11T11:51:50.395Z,15.56
2018-01-11T11:54:18.750Z,15.92
2018-01-11T11:56:47.117Z,14.96
2018-01-11T11:59:15.468Z,14.85
2018-01-11T12:01:43.832Z,14.52
2018-01-11T12:04:12.240Z,15.16
2018-01-11T12:06:40.606Z,15.12
2018-01-11T12:09:08.987Z,14.95
2018-01-11T12:11:37.354Z,14.22
2018-01-11T12:14:05.734Z,14.71
2018-01-11T12:16:34.176Z,14.91
2018-01-11T12:19:02.481Z,14.93
2018-01-11T12:21:30.831Z,14.79
2018-01-11T12:23:59.220Z,14.52
2018-01-11T12:26:27.619Z,14.47
2018-01-11T12:28:55.969Z,15.15
2018-01-11T12:31:24.322Z,15.53
2018-01-11T12:33:52.677Z,15.80
2018-01-11T12:36:21.087Z,14.82
2018-01-11T12:38:50.551Z,15.49
2018-01-11T12:41:18.937Z,14.34
2018-01-11T12:43:47.300Z,15.69
2018-01-11T12:46:15.657Z,14.89
2018-01-11T12:48:44.056Z,15.09
2018-01-11T12:51:12.466Z,14.66
2018-01-11T12:53:40.827Z,14.67
2018-01-11T12:56:09.167Z,14.26
2018-01-11T12:58:37.535Z,14.49
2018-01-11T13:01:05.935Z,14.97
2018-01-11T13:03:34.300Z,14.32
2018-01-11T13:06:02.667Z,14.80
2018-01-11T13:08:31.056Z,14.43
2018-01-11T13:10:59.469Z,14.89
2018-01-11T13:13:27.929Z,14.85
2018-01-11T13:15:56.287Z,15.27
2018-01-11T13:18:24.637Z,14.74
2018-01-11T13:20:53.002Z,15.03
2018-01-11T13:23:21.384Z,15.37
2018-01-11T13:25:49.744Z,14.85
2018-01-11T13:28:18.100Z,13.56
2018-01-11T13:30:46.499Z,14.35
2018-01-11T13:33:14.883Z,14.41
2018-01-11T13:35:44.165Z,13.88
2018-01-11T13:38:12.563Z,13.76
2018-01-11T13:40:40.933Z,14.17
2018-01-11T13:43:09.298Z,14.33
2018-01-11T13:45:37.673Z,14.14
2018-01-11T13:48:06.057Z,14.18
2018-01-11T13:50:34.485Z,13.31
2018-01-11T13:53:02.879Z,13.42
2018-01-11T13:55:31.238Z,13.60
2018-01-11T13:57:59.611Z,13.82
2018-01-11T14:00:28.036Z,13.47
2018-01-11T14:02:56.538Z,14.04
2018-01-11T14:05:24.897Z,13.78
2018-01-11T14:07:53.256Z,13.19
2018-01-11T14:10:21.643Z,13.39
2018-01-11T14:12:50.056Z,13.26
2018-01-11T14:15:18.426Z,12.89
2018-01-11T14:17:46.789Z,13.35
2018-01-11T14:20:15.156Z,13.23
2018-01-11T14:22:43.533Z,13.14
2018-01-11T14:25:11.941Z,12.77
2018-01-11T14:27:40.356Z,12.90
2018-01-11T14:30:08.710Z,13.18
2018-01-11T14:32:37.074Z,12.82
2018-01-11T14:35:05.431Z,13.28
2018-01-11T14:37:33.771Z,13.51
2018-01-11T14:40:02.173Z,13.62
2018-01-11T14:42:30.536Z,13.33
2018-01-11T14:44:58.888Z,13.45
2018-01-11T14:47:27.271Z,13.07
2018-01-11T14:49:55.779Z,13.56
2018-01-11T14:52:24.158Z,13.25
2018-01-11T14:54:52.542Z,12.98
2018-01-11T14:57:20.903Z,13.45
2018-01-11T14:59:49.250Z,13.22
2018-01-11T15:02:17.630Z,13.56
2018-01-11T15:04:46.100Z,12.93
2018-01-11T15:07:15.297Z,13.44
2018-01-11T15:09:43.642Z,13.09
2018-01-11T15:12:11.988Z,14.03
2018-01-11T15:14:40.359Z,13.38
2018-01-11T15:17:08.844Z,13.47
2018-01-11T15:19:37.199Z,12.85
2018-01-11T15:22:05.570Z,13.33
2018-01-11T15:24:34.074Z,13.52
2018-01-11T15:27:02.418Z,13.68
2018-01-11T15:29:30.798Z,13.87
2018-01-11T15:31:59.252Z,13.75
2018-01-11T15:34:27.592Z,13.12
2018-01-11T15:36:55.967Z,13.39
2018-01-11T15:39:24.352Z,13.21
2018-01-11T15:41:52.710Z,13.12
2018-01-11T15:44:21.064Z,13.09
2018-01-11T15:46:49.419Z,13.31
2018-01-11T15:49:17.798Z,13.00
2018-01-11T15:51:46.155Z,13.34
2018-01-11T15:54:14.509Z,13.15
2018-01-11T15:56:42.885Z,12.99
2018-01-11T15:59:11.232Z,12.73
2018-01-11T16:01:39.615Z,12.92
2018-01-11T16:04:07.980Z,13.44
2018-01-11T16:06:36.332Z,13.63
2018-01-11T16:09:04.732Z,13.70
2018-01-11T16:11:33.139Z,13.62
2018-01-11T16:14:01.568Z,13.48
2018-01-11T16:16:30.059Z,13.44
2018-01-11T16:18:58.452Z,13.49
2018-01-11T16:21:26.816Z,13.71
2018-01-11T16:23:55.251Z,13.70
2018-01-11T16:26:23.636Z,13.90
2018-01-11T16:28:52.043Z,13.90
2018-01-11T16:31:20.412Z,13.69
2018-01-11T16:33:48.800Z,13.71
2018-01-11T16:36:17.174Z,13.13
2018-01-11T16:38:45.569Z,13.45
2018-01-11T16:41:13.948Z,13.15
2018-01-11T16:43:42.308Z,12.92
2018-01-11T16:46:10.744Z,12.96
2018-01-11T16:48:39.126Z,13.01
2018-01-11T16:51:07.575Z,13.40
2018-01-11T16:53:35.936Z,13.12
2018-01-11T16:56:04.340Z,13.44
2018-01-11T16:58:32.707Z,13.04
2018-01-11T17:01:01.074Z,13.25
2018-01-11T17:03:29.520Z,13.23
2018-01-11T17:05:57.885Z,13.27
2018-01-11T17:08:26.304Z,13.02
2018-01-11T17:10:54.655Z,12.99
2018-01-11T17:13:23.059Z,13.21
2018-01-11T17:15:51.585Z,13.42
2018-01-11T17:18:19.946Z,13.23
2018-01-11T17:20:48.316Z,13.59
2018-01-11T17:23:17.612Z,13.87
2018-01-11T17:25:45.970Z,13.95
2018-01-11T17:28:14.392Z,13.58
2018-01-11T17:30:42.824Z,13.76
2018-01-11T17:33:11.392Z,13.80
2018-01-11T17:35:39.757Z,13.60
2018-01-11T17:38:08.196Z,13.16
2018-01-11T17:40:36.579Z,13.43
2018-01-11T17:43:04.959Z,13.35
2018-01-11T17:45:33.353Z,13.36
2018-01-11T17:48:01.720Z,13.31
2018-01-11T17:50:30.082Z,13.35
2018-01-11T17:52:58.503Z,13.39
2018-01-11T17:55:26.858Z,13.30
2018-01-11T17:57:55.299Z,13.43
2018-01-11T18:00:23.715Z,13.57
2018-01-11T18:02:52.105Z,13.77
2018-01-11T18:05:20.596Z,13.72
2018-01-11T18:07:48.977Z,13.44
2018-01-11T18:10:17.341Z,13.65
2018-01-11T18:12:45.749Z,13.66
2018-01-11T18:15:14.100Z,13.48
2018-01-11T18:17:42.632Z,13.43
2018-01-11T18:20:11.012Z,13.55
2018-01-11T18:22:39.378Z,13.54
2018-01-11T18:25:07.745Z,13.71
2018-01-11T18:27:36.111Z,13.63
2018-01-11T18:30:04.488Z,13.72
2018-01-11T18:32:32.854Z,13.86
2018-01-11T18:35:01.282Z,13.29
2018-01-11T18:37:29.646Z,13.57
2018-01-11T18:39:58.004Z,13.32
2018-01-11T18:42:26.375Z,13.01
2018-01-11T18:44:54.740Z,13.35
2018-01-11T18:47:23.144Z,14.07
2018-01-11T18:49:51.515Z,13.86
2018-01-11T18:52:19.900Z,14.02
2018-01-11T18:54:48.264Z,13.25
2018-01-11T18:57:16.629Z,13.91
2018-01-11T18:59:45.036Z,13.96
2018-01-11T19:02:13.420Z,12.92
2018-01-11T19:04:41.796Z,12.74
2018-01-11T19:07:10.179Z,13.46
2018-01-11T19:09:38.558Z,13.65
2018-01-11T19:12:06.980Z,13.14
2018-01-11T19:14:35.344Z,13.12
2018-01-11T19:17:03.738Z,12.74
2018-01-11T19:19:32.107Z,12.92
2018-01-11T19:22:00.487Z,13.03
2018-01-11T19:24:28.994Z,13.01
2018-01-11T19:26:57.400Z,13.37
2018-01-11T19:29:25.772Z,13.52
2018-01-11T19:31:54.151Z,13.19
2018-01-11T19:34:22.516Z,13.33
2018-01-11T19:36:50.916Z,13.54
2018-01-11T19:39:19.288Z,13.38
2018-01-11T19:41:47.671Z,13.53
2018-01-11T19:44:16.037Z,13.56
2018-01-11T19:46:44.420Z,13.58
2018-01-11T19:49:12.816Z,13.63
2018-01-11T19:51:41.172Z,13.92
2018-01-11T19:54:09.570Z,13.34
2018-01-11T19:56:38.083Z,13.61
2018-01-11T19:59:06.504Z,13.32
2018-01-11T20:01:34.940Z,13.33
2018-01-11T20:04:03.516Z,13.48
2018-01-11T20:06:31.893Z,13.68
2018-01-11T20:09:00.258Z,13.65
2018-01-11T20:11:28.639Z,13.26
2018-01-11T20:13:57.136Z,13.34
2018-01-11T20:16:25.597Z,13.41
2018-01-11T20:18:53.967Z,13.46
2018-01-11T20:21:22.374Z,13.02
2018-01-11T20:23:50.736Z,13.16
2018-01-11T20:26:19.144Z,12.60
2018-01-11T20:28:47.516Z,12.93
2018-01-11T20:31:15.916Z,13.02
2018-01-11T20:33:44.279Z,12.50
2018-01-11T20:36:12.654Z,12.79
2018-01-11T20:38:41.067Z,12.60
2018-01-11T20:41:09.447Z,13.45
2018-01-11T20:43:37.817Z,13.26
2018-01-11T20:46:06.189Z,13.30
2018-01-11T20:48:34.560Z,13.19
2018-01-11T20:51:02.959Z,12.82
2018-01-11T20:53:31.331Z,12.82
2018-01-11T20:55:59.716Z,13.01
2018-01-11T20:58:28.090Z,12.90
2018-01-11T21:00:56.480Z,12.94
2018-01-11T21:03:24.977Z,13.22
2018-01-11T21:05:53.364Z,12.82
2018-01-11T21:08:21.710Z,13.35
2018-01-11T21:10:50.078Z,12.95
2018-01-11T21:13:18.441Z,12.90
2018-01-11T21:15:46.854Z,12.97
2018-01-11T21:18:15.204Z,12.83
2018-01-11T21:20:43.568Z,12.66
2018-01-11T21:23:11.932Z,12.60
2018-01-11T21:25:40.295Z,12.04
2018-01-11T21:28:08.696Z,12.54
2018-01-11T21:30:37.060Z,12.88
2018-01-11T21:33:05.535Z,12.62
2018-01-11T21:35:34.044Z,11.52
2018-01-11T21:38:02.451Z,11.82
2018-01-11T21:40:30.842Z,12.74
2018-01-11T21:42:59.233Z,13.02
2018-01-11T21:45:27.597Z,12.69
2018-01-11T21:47:55.956Z,12.18
2018-01-11T21:50:24.419Z,12.94
2018-01-11T21:52:52.794Z,13.30
2018-01-11T21:55:21.187Z,12.64
2018-01-11T21:57:49.559Z,12.87
2018-01-11T22:00:17.961Z,12.30
2018-01-11T22:02:46.327Z,12.42
2018-01-11T22:05:14.687Z,12.84
2018-01-11T22:07:43.086Z,12.47
2018-01-11T22:10:11.482Z,12.43
2018-01-11T22:12:39.855Z,12.32
2018-01-11T22:15:08.227Z,12.48
2018-01-11T22:17:36.599Z,12.42
2018-01-11T22:20:05.007Z,12.87
2018-01-11T22:22:33.431Z,12.49
2018-01-11T22:25:01.787Z,12.56
2018-01-11T22:27:30.168Z,13.12
2018-01-11T22:29:58.542Z,13.21
2018-01-11T22:32:26.927Z,12.57
2018-01-11T22:34:55.274Z,12.19
2018-01-11T22:37:23.652Z,12.62
2018-01-11T22:39:52.005Z,12.34
2018-01-11T22:42:20.375Z,12.75
2018-01-11T22:44:48.764Z,12.83
2018-01-11T22:47:17.130Z,12.50
2018-01-11T22:49:45.498Z,13.01
2018-01-11T22:52:13.869Z,12.11
2018-01-11T22:54:42.254Z,11.53
2018-01-11T22:57:10.650Z,12.55
2018-01-11T22:59:39.012Z,12.60
2018-01-11T23:02:07.376Z,12.25
2018-01-11T23:04:35.743Z,12.58
2018-01-11T23:07:04.116Z,12.99
2018-01-11T23:09:32.518Z,12.08
2018-01-11T23:12:00.880Z,11.67
2018-01-11T23:14:29.286Z,12.18
2018-01-11T23:16:57.632Z,12.49
2018-01-11T23:19:25.982Z,13.10
2018-01-11T23:21:54.379Z,12.67
2018-01-11T23:24:22.757Z,12.57
2018-01-11T23:26:51.131Z,13.07
2018-01-11T23:29:19.500Z,13.09
2018-01-11T23:31:47.890Z,12.90
2018-01-11T23:34:16.287Z,12.88
2018-01-11T23:36:44.737Z,13.00
2018-01-11T23:39:13.116Z,13.09
2018-01-11T23:41:41.489Z,13.29
2018-01-11T23:44:09.908Z,13.21
2018-01-11T23:46:38.318Z,12.98
2018-01-11T23:49:06.676Z,13.35
2018-01-11T23:51:35.048Z,12.96
2018-01-11T23:54:03.419Z,12.78
2018-01-11T23:56:31.772Z,12.67
2018-01-11T23:59:00.264Z,12.67
